Terminal Aerodrome Forecast
Issued by NWS Milwaukee/Sullivan, WI

Home | Current Version | Previous Version | Text Only | Print | Product List | Glossary On
Versions: 1 2 3 4 5 6 7 8 9 10 11 12 13 14 15 16 17 18 19 20 21 22 23 24 25 26 27 28 29 30 31 32 33 34 35 36 37 38
000
FTUS43 KMKX 211120
TAFMSN
TAF
KMSN 211120Z 2112/2212 01008KT P6SM SCT025
     FM211300 02008KT P6SM BKN025
     FM211800 04008KT P6SM SCT035
     FM212000 05008KT P6SM FEW250
     FM220200 08004KT P6SM FEW250=

USA.gov is the U.S. government's official web portal to all federal, state and local government web resources and services.